createdAt,value
2023-03-08T00:00:34.178Z,17.63
2023-03-08T00:05:39.377Z,17.48
2023-03-08T00:10:44.081Z,15.85
2023-03-08T00:15:47.406Z,17.15
2023-03-08T00:21:00.296Z,14.52
2023-03-08T00:26:05.108Z,17.10
2023-03-08T00:31:10.396Z,17.63
2023-03-08T00:36:16.618Z,17.75
2023-03-08T00:41:21.641Z,18.02
2023-03-08T00:51:29.409Z,13.23
2023-03-08T00:56:34.144Z,12.70
2023-03-08T01:01:37.531Z,14.82
2023-03-08T01:06:40.894Z,14.05
2023-03-08T01:11:45.541Z,5.82
2023-03-08T01:16:48.757Z,7.95
2023-03-08T01:21:52.042Z,4.28
2023-03-08T01:26:59.092Z,2.58
2023-03-08T01:32:02.302Z,1.48
2023-03-08T01:37:06.126Z,1.45
2023-03-08T01:42:11.009Z,2.30
2023-03-08T01:52:27.222Z,6.50
2023-03-08T01:57:34.585Z,4.57
2023-03-08T02:02:42.698Z,4.03
2023-03-08T02:07:45.850Z,3.65
2023-03-08T02:12:50.480Z,6.32
2023-03-08T02:17:53.695Z,3.67
2023-03-08T02:23:08.935Z,6.68
2023-03-08T02:28:12.217Z,3.83
2023-03-08T02:33:15.540Z,2.90
2023-03-08T02:38:21.889Z,3.50
2023-03-08T02:43:25.433Z,2.78
2023-03-08T02:48:28.801Z,2.65
2023-03-08T02:53:33.497Z,2.08
2023-03-08T02:58:36.795Z,1.17
2023-03-08T03:03:40.353Z,2.50
2023-03-08T03:08:45.154Z,1.48
2023-03-08T03:18:51.327Z,1.75
2023-03-08T03:23:57.049Z,2.13
2023-03-08T03:29:00.765Z,3.25
2023-03-08T03:34:04.082Z,3.08
2023-03-08T03:39:08.796Z,4.78
2023-03-08T03:44:12.014Z,4.97
2023-03-08T03:49:15.192Z,4.72
2023-03-08T03:54:19.873Z,4.22
2023-03-08T03:59:25.661Z,4.72
2023-03-08T04:04:29.768Z,9.60
2023-03-08T04:09:34.737Z,8.07
2023-03-08T04:14:39.755Z,5.90
2023-03-08T04:19:42.958Z,3.67
2023-03-08T04:24:47.599Z,5.35
2023-03-08T04:29:50.802Z,8.73
2023-03-08T04:34:54.096Z,7.63
2023-03-08T04:39:58.697Z,6.97
2023-03-08T04:45:01.992Z,4.68
2023-03-08T04:50:05.795Z,6.38
2023-03-08T04:55:10.990Z,6.97
2023-03-08T05:00:15.302Z,8.45
2023-03-08T05:05:18.747Z,6.15
2023-03-08T05:10:23.410Z,5.95
2023-03-08T05:15:26.800Z,7.28
2023-03-08T05:20:30.121Z,8.27
2023-03-08T05:25:34.976Z,7.60
2023-03-08T05:35:41.231Z,8.30
2023-03-08T05:40:45.839Z,8.88
2023-03-08T05:45:57.163Z,9.02
2023-03-08T05:51:00.788Z,6.03
2023-03-08T05:56:11.522Z,6.55
2023-03-08T06:01:17.022Z,8.05
2023-03-08T06:06:21.669Z,6.95
2023-03-08T06:11:26.597Z,7.25
2023-03-08T06:16:29.891Z,7.70
2023-03-08T06:21:33.129Z,9.93
2023-03-08T06:26:37.766Z,9.02
2023-03-08T06:31:41.144Z,5.38
2023-03-08T06:36:44.612Z,9.27
2023-03-08T06:41:49.260Z,5.65
2023-03-08T06:46:52.531Z,10.80
2023-03-08T06:51:55.758Z,8.02
2023-03-08T06:57:00.434Z,7.60
2023-03-08T07:02:03.714Z,8.43
2023-03-08T07:07:08.166Z,5.72
2023-03-08T07:12:12.868Z,2.58
2023-03-08T07:17:16.170Z,3.40
2023-03-08T07:22:19.345Z,2.45
2023-03-08T07:27:24.008Z,2.25
2023-03-08T07:32:29.269Z,1.33
2023-03-08T07:37:32.617Z,0.77
2023-03-08T07:42:37.254Z,1.13
2023-03-08T07:47:40.692Z,2.30
2023-03-08T07:52:43.964Z,0.45
2023-03-08T07:57:48.668Z,0.75
2023-03-08T08:02:54.487Z,0.90
2023-03-08T08:07:57.707Z,1.33
2023-03-08T08:13:02.359Z,1.17
2023-03-08T08:18:05.993Z,1.67
2023-03-08T08:23:09.521Z,1.20
2023-03-08T08:28:14.219Z,0.82
2023-03-08T08:33:17.475Z,1.50
2023-03-08T08:38:20.895Z,1.85
2023-03-08T08:43:25.559Z,0.47
2023-03-08T08:53:32.393Z,3.63
2023-03-08T08:58:37.080Z,2.30
2023-03-08T09:03:40.323Z,1.88
2023-03-08T09:08:43.580Z,1.83
2023-03-08T09:13:48.314Z,2.60
2023-03-08T09:18:52.168Z,1.67
2023-03-08T09:23:55.808Z,2.77
2023-03-08T09:29:05.208Z,1.38
2023-03-08T09:34:09.958Z,0.93
2023-03-08T09:44:49.651Z,1.52
2023-03-08T09:49:56.734Z,4.07
2023-03-08T09:55:01.097Z,6.53
2023-03-08T10:00:11.849Z,6.65
2023-03-08T10:05:21.169Z,7.00
2023-03-08T10:10:41.456Z,6.03
2023-03-08T10:15:51.249Z,3.63
2023-03-08T10:20:54.969Z,3.10
2023-03-08T10:25:58.091Z,4.25
2023-03-08T10:31:04.849Z,3.67
2023-03-08T10:36:12.876Z,3.80
2023-03-08T10:41:18.827Z,5.10
2023-03-08T10:46:25.498Z,2.70
2023-03-08T10:51:30.460Z,2.85
2023-03-08T10:56:38.993Z,5.15
2023-03-08T11:01:52.671Z,2.45
2023-03-08T11:06:55.860Z,1.17
2023-03-08T11:12:00.255Z,1.80
2023-03-08T11:17:17.147Z,1.05
2023-03-08T11:22:34.716Z,2.22
2023-03-08T11:27:55.101Z,4.07
2023-03-08T11:33:23.600Z,2.35
2023-03-08T11:38:29.076Z,3.40
2023-03-08T11:43:49.156Z,3.63
2023-03-08T11:49:04.497Z,3.10
2023-03-08T11:54:18.165Z,1.75
2023-03-08T11:59:30.516Z,2.10
2023-03-08T12:04:40.755Z,1.85
2023-03-08T12:09:53.164Z,2.50
2023-03-08T12:15:00.696Z,3.15
2023-03-08T12:20:08.319Z,3.88
2023-03-08T12:25:22.235Z,1.95
2023-03-08T12:30:36.670Z,2.88
2023-03-08T12:35:52.861Z,4.63
2023-03-08T12:40:56.900Z,2.92
2023-03-08T12:46:06.445Z,1.77
2023-03-08T12:51:24.195Z,1.60
2023-03-08T12:56:31.804Z,1.35
2023-03-08T13:01:38.744Z,1.25
2023-03-08T13:07:19.272Z,1.08
2023-03-08T13:12:29.250Z,1.83
2023-03-08T13:17:39.505Z,1.15
2023-03-08T13:22:55.905Z,2.13
2023-03-08T13:28:05.130Z,2.42
2023-03-08T13:33:10.677Z,1.50
2023-03-08T13:38:23.190Z,2.05
2023-03-08T13:43:27.773Z,2.45
2023-03-08T13:48:34.938Z,4.05
2023-03-08T13:53:40.497Z,2.25
2023-03-08T13:58:48.596Z,3.10
2023-03-08T14:03:52.695Z,1.95
2023-03-08T14:09:00.675Z,2.03
2023-03-08T14:14:07.333Z,1.48
2023-03-08T14:19:12.599Z,0.90
2023-03-08T14:24:22.507Z,2.30
2023-03-08T14:29:27.241Z,2.83
2023-03-08T14:39:40.700Z,0.80
2023-03-08T14:44:44.188Z,2.92
2023-03-08T14:49:56.905Z,1.00
2023-03-08T14:55:03.384Z,1.00
2023-03-08T15:00:14.267Z,2.10
2023-03-08T15:05:28.401Z,2.03
2023-03-08T15:10:38.054Z,1.42
2023-03-08T15:15:41.196Z,1.15
2023-03-08T15:20:49.478Z,1.15
2023-03-08T15:25:54.561Z,1.50
2023-03-08T15:30:57.790Z,1.77
2023-03-08T15:36:01.012Z,2.05
2023-03-08T15:41:05.805Z,3.95
2023-03-08T15:51:19.610Z,1.73
2023-03-08T15:56:26.094Z,2.90
2023-03-08T16:01:29.273Z,0.60
2023-03-08T16:06:32.429Z,1.00
2023-03-08T16:11:36.933Z,1.63
2023-03-08T16:16:45.586Z,1.25
2023-03-08T16:21:49.140Z,0.57
2023-03-08T16:26:53.701Z,0.60
2023-03-08T16:31:58.586Z,1.13
2023-03-08T16:37:01.774Z,2.42
2023-03-08T16:42:06.470Z,1.58
2023-03-08T16:52:12.924Z,2.50
2023-03-08T16:57:20.111Z,4.10
2023-03-08T17:02:23.520Z,8.85
2023-03-08T17:07:26.636Z,9.15
2023-03-08T17:12:31.233Z,10.93
2023-03-08T17:17:34.382Z,12.40
2023-03-08T17:22:37.504Z,14.18
2023-03-08T17:27:42.060Z,15.43
2023-03-08T17:32:45.199Z,10.50
2023-03-08T17:37:50.190Z,12.80
2023-03-08T17:42:56.760Z,9.35
2023-03-08T17:48:02.816Z,9.73
2023-03-08T17:53:06.059Z,13.98
2023-03-08T17:58:10.851Z,12.98
2023-03-08T18:08:16.903Z,17.92
2023-03-08T18:13:21.440Z,19.38
2023-03-08T18:18:24.596Z,18.92
2023-03-08T18:23:29.681Z,16.25
2023-03-08T18:28:35.848Z,18.35
2023-03-08T18:33:39.420Z,15.85
2023-03-08T18:38:43.193Z,25.23
2023-03-08T18:43:47.729Z,18.20
2023-03-08T18:48:52.116Z,16.10
2023-03-08T18:53:56.049Z,20.85
2023-03-08T18:59:02.963Z,18.13
2023-03-08T19:04:08.120Z,17.65
2023-03-08T19:09:12.626Z,18.35
2023-03-08T19:14:18.173Z,18.05
2023-03-08T19:19:21.441Z,14.25
2023-03-08T19:24:24.669Z,17.80
2023-03-08T19:29:31.387Z,17.05
2023-03-08T19:34:36.486Z,12.68
2023-03-08T19:39:39.669Z,14.52
2023-03-08T19:44:48.387Z,16.63
2023-03-08T19:49:51.663Z,16.67
2023-03-08T19:54:54.968Z,15.32
2023-03-08T20:00:01.367Z,16.58
2023-03-08T20:05:04.713Z,25.75
2023-03-08T20:10:16.116Z,15.00
2023-03-08T20:15:21.028Z,18.30
2023-03-08T20:20:24.316Z,15.88
2023-03-08T20:25:27.771Z,21.13
2023-03-08T20:30:32.324Z,16.40
2023-03-08T20:35:35.528Z,16.25
2023-03-08T20:40:39.774Z,16.17
2023-03-08T20:45:44.427Z,13.23
2023-03-08T20:50:47.665Z,19.88
2023-03-08T20:55:50.785Z,16.23
2023-03-08T21:00:55.308Z,21.27
2023-03-08T21:05:58.405Z,16.88
2023-03-08T21:11:01.508Z,20.65
2023-03-08T21:16:08.608Z,16.40
2023-03-08T21:21:18.806Z,18.20
2023-03-08T21:26:22.450Z,17.20
2023-03-08T21:31:27.044Z,15.43
2023-03-08T21:36:30.296Z,15.98
2023-03-08T21:41:35.208Z,13.32
2023-03-08T21:46:40.735Z,21.50
2023-03-08T21:51:43.961Z,19.17
2023-03-08T21:56:47.329Z,17.08
2023-03-08T22:01:54.208Z,19.90
2023-03-08T22:06:57.481Z,14.88
2023-03-08T22:12:00.638Z,23.60
2023-03-08T22:17:05.206Z,18.27
2023-03-08T22:22:09.993Z,17.95
2023-03-08T22:32:18.529Z,18.27
2023-03-08T22:37:21.696Z,18.58
2023-03-08T22:42:24.862Z,15.18
2023-03-08T22:47:29.580Z,18.98
2023-03-08T22:52:32.877Z,17.55
2023-03-08T22:57:37.598Z,19.55
2023-03-08T23:02:42.404Z,17.05
2023-03-08T23:07:45.672Z,17.30
2023-03-08T23:12:48.919Z,15.65
2023-03-08T23:17:53.500Z,14.40
2023-03-08T23:22:56.662Z,17.48
2023-03-08T23:27:59.821Z,16.98
2023-03-08T23:33:04.374Z,19.80
2023-03-08T23:38:07.512Z,18.48
2023-03-08T23:43:10.662Z,16.67
2023-03-08T23:48:15.233Z,18.63
2023-03-08T23:53:18.491Z,20.70
2023-03-08T23:58:21.603Z,18.77
